GAF1510 EDDB-HLLT
Flight info
| Callsign | GAF1510 |
|---|---|
| Flight time | N/A |
| Altitude | 36000 |
| Route | LUROS3A LUROS Y211 BEBKU Z36 PIKIB DCT DEXIT DCT GIMIX DCT IBENI DCT SUXUB DCT NERAR DCT NELDA DCT VARIG VARIG1A |
| Aircraft | A21N/M-SDE2E3FGHIRWXY/LB1 |
Departure
| Time | 2026-05-07 20:12 |
|---|---|
| Airport | Berlin Brandenburg Airport (EDDB) |
Arrival
| Time | N/A |
|---|---|
| Airport | HLLT |
| Time | Latitude | Longitude | Altitude | Speed | Heading |
|---|---|---|---|---|---|
| 2026-05-07 19:45 | 52.38074 | 13.50862 | 158 ft | 0 kts | 57° |
| 2026-05-07 20:05 | 52.38075 | 13.50865 | 158 ft | 1 kts | 57° |
| 2026-05-07 20:05 | 52.38083 | 13.50886 | 158 ft | 3 kts | 57° |
| 2026-05-07 20:05 | 52.38098 | 13.50927 | 158 ft | 5 kts | 62° |
| 2026-05-07 20:06 | 52.38105 | 13.50969 | 158 ft | 4 kts | 84° |
| 2026-05-07 20:06 | 52.38099 | 13.51029 | 158 ft | 8 kts | 105° |
| 2026-05-07 20:06 | 52.38076 | 13.51099 | 158 ft | 7 kts | 133° |
| 2026-05-07 20:06 | 52.38033 | 13.51144 | 158 ft | 8 kts | 168° |
| 2026-05-07 20:07 | 52.38003 | 13.51123 | 158 ft | 4 kts | 222° |
| 2026-05-07 20:07 | 52.37977 | 13.51062 | 158 ft | 9 kts | 239° |
| 2026-05-07 20:07 | 52.37931 | 13.50950 | 158 ft | 14 kts | 238° |
| 2026-05-07 20:07 | 52.37873 | 13.50798 | 158 ft | 17 kts | 238° |
| 2026-05-07 20:08 | 52.37809 | 13.50631 | 158 ft | 18 kts | 238° |
| 2026-05-07 20:08 | 52.37739 | 13.50457 | 158 ft | 18 kts | 237° |
| 2026-05-07 20:08 | 52.37669 | 13.50274 | 158 ft | 20 kts | 237° |
| 2026-05-07 20:08 | 52.37595 | 13.50086 | 161 ft | 20 kts | 237° |
| 2026-05-07 20:09 | 52.37527 | 13.49912 | 158 ft | 19 kts | 238° |
| 2026-05-07 20:09 | 52.37455 | 13.49728 | 158 ft | 20 kts | 237° |
| 2026-05-07 20:09 | 52.37379 | 13.49531 | 158 ft | 21 kts | 238° |
| 2026-05-07 20:10 | 52.37228 | 13.49148 | 158 ft | 21 kts | 237° |
| 2026-05-07 20:10 | 52.37147 | 13.48939 | 158 ft | 22 kts | 237° |
| 2026-05-07 20:10 | 52.37065 | 13.48726 | 158 ft | 18 kts | 237° |
| 2026-05-07 20:10 | 52.36998 | 13.48617 | 158 ft | 10 kts | 202° |
| 2026-05-07 20:11 | 52.36957 | 13.48594 | 158 ft | 7 kts | 199° |
| 2026-05-07 20:11 | 52.36890 | 13.48557 | 158 ft | 14 kts | 199° |
| 2026-05-07 20:11 | 52.36814 | 13.48582 | 158 ft | 10 kts | 126° |
| 2026-05-07 20:11 | 52.36825 | 13.48738 | 158 ft | 35 kts | 72° |
| 2026-05-07 20:12 | 52.37008 | 13.49516 | 158 ft | 111 kts | 69° |
| 2026-05-07 20:12 | 52.37380 | 13.51076 | 264 ft | 169 kts | 69° |
| 2026-05-07 20:12 | 52.37764 | 13.52884 | 1103 ft | 168 kts | 71° |
| 2026-05-07 20:12 | 52.38150 | 13.54666 | 2065 ft | 164 kts | 68° |
| 2026-05-07 20:13 | 52.38613 | 13.56537 | 2582 ft | 193 kts | 67° |
| 2026-05-07 20:13 | 52.39165 | 13.58758 | 2940 ft | 229 kts | 68° |
| 2026-05-07 20:13 | 52.39780 | 13.61293 | 3702 ft | 246 kts | 68° |
| 2026-05-07 20:13 | 52.40405 | 13.63928 | 4797 ft | 251 kts | 70° |
| 2026-05-07 20:14 | 52.40785 | 13.66711 | 5853 ft | 258 kts | 85° |
| 2026-05-07 20:14 | 52.40573 | 13.69641 | 6916 ft | 264 kts | 109° |
| 2026-05-07 20:14 | 52.39566 | 13.72173 | 7951 ft | 272 kts | 137° |
| 2026-05-07 20:14 | 52.37989 | 13.73958 | 9033 ft | 279 kts | 149° |
| 2026-05-07 20:15 | 52.36278 | 13.75523 | 10122 ft | 285 kts | 150° |
| 2026-05-07 20:15 | 52.34487 | 13.77113 | 10799 ft | 305 kts | 151° |
| 2026-05-07 20:15 | 52.32544 | 13.78851 | 11318 ft | 328 kts | 150° |
| 2026-05-07 20:15 | 52.30510 | 13.80689 | 12203 ft | 338 kts | 150° |
| 2026-05-07 20:16 | 52.28434 | 13.82572 | 13215 ft | 345 kts | 150° |
| 2026-05-07 20:16 | 52.26350 | 13.84466 | 14183 ft | 350 kts | 151° |
| 2026-05-07 20:16 | 52.24202 | 13.86421 | 15091 ft | 356 kts | 151° |
| 2026-05-07 20:16 | 52.22021 | 13.88406 | 15991 ft | 362 kts | 151° |
| 2026-05-07 20:17 | 52.19803 | 13.90422 | 16878 ft | 367 kts | 151° |
| 2026-05-07 20:17 | 52.17554 | 13.92466 | 17768 ft | 371 kts | 152° |
| 2026-05-07 20:17 | 52.15292 | 13.94519 | 18681 ft | 374 kts | 152° |
| 2026-05-07 20:17 | 52.13002 | 13.96594 | 19391 ft | 380 kts | 151° |
| 2026-05-07 20:18 | 52.10679 | 13.98697 | 20127 ft | 385 kts | 151° |
| 2026-05-07 20:18 | 52.08323 | 14.00828 | 20866 ft | 390 kts | 151° |
| 2026-05-07 20:18 | 52.05971 | 14.02953 | 21588 ft | 394 kts | 151° |
| 2026-05-07 20:18 | 52.03561 | 14.05128 | 22295 ft | 399 kts | 150° |
| 2026-05-07 20:19 | 52.01120 | 14.07328 | 22982 ft | 403 kts | 150° |
| 2026-05-07 20:19 | 51.98651 | 14.09551 | 23640 ft | 408 kts | 150° |
| 2026-05-07 20:19 | 51.96153 | 14.11776 | 24189 ft | 412 kts | 152° |
| 2026-05-07 20:19 | 51.93519 | 14.13639 | 24759 ft | 415 kts | 161° |
| 2026-05-07 20:20 | 51.90703 | 14.14692 | 25313 ft | 418 kts | 173° |
| 2026-05-07 20:20 | 51.87795 | 14.14782 | 25854 ft | 420 kts | 185° |
| 2026-05-07 20:20 | 51.84921 | 14.13918 | 26362 ft | 422 kts | 197° |
| 2026-05-07 20:20 | 51.82179 | 14.12362 | 26860 ft | 425 kts | 201° |
| 2026-05-07 20:21 | 51.79442 | 14.10541 | 27347 ft | 427 kts | 204° |
| 2026-05-07 20:21 | 51.76709 | 14.08599 | 27830 ft | 430 kts | 204° |
| 2026-05-07 20:21 | 51.73975 | 14.06620 | 28306 ft | 432 kts | 204° |
| 2026-05-07 20:21 | 51.71217 | 14.04636 | 28754 ft | 435 kts | 204° |
| 2026-05-07 20:22 | 51.68439 | 14.02664 | 29198 ft | 438 kts | 204° |
| 2026-05-07 20:22 | 51.65633 | 14.00702 | 29601 ft | 441 kts | 204° |
| 2026-05-07 20:22 | 51.62806 | 13.98745 | 30002 ft | 444 kts | 204° |
| 2026-05-07 20:22 | 51.59997 | 13.96816 | 30367 ft | 446 kts | 204° |
| 2026-05-07 20:23 | 51.57138 | 13.94859 | 30726 ft | 448 kts | 204° |
| 2026-05-07 20:23 | 51.54274 | 13.92903 | 31182 ft | 446 kts | 204° |
| 2026-05-07 20:23 | 51.51427 | 13.90962 | 31705 ft | 443 kts | 204° |
| 2026-05-07 20:23 | 51.48595 | 13.89034 | 32204 ft | 441 kts | 203° |
| 2026-05-07 20:24 | 51.45714 | 13.87384 | 32665 ft | 440 kts | 197° |
| 2026-05-07 20:24 | 51.42742 | 13.86240 | 33086 ft | 439 kts | 193° |
| 2026-05-07 20:24 | 51.39747 | 13.85260 | 33492 ft | 439 kts | 192° |
| 2026-05-07 20:24 | 51.36791 | 13.84380 | 33912 ft | 437 kts | 191° |
| 2026-05-07 20:25 | 51.33801 | 13.83532 | 34284 ft | 436 kts | 191° |
| 2026-05-07 20:25 | 51.30812 | 13.82699 | 34590 ft | 436 kts | 191° |
| 2026-05-07 20:25 | 51.27822 | 13.81864 | 34878 ft | 436 kts | 191° |
| 2026-05-07 20:25 | 51.24837 | 13.81025 | 35170 ft | 436 kts | 191° |
| 2026-05-07 20:26 | 51.21856 | 13.80179 | 35454 ft | 435 kts | 191° |
| 2026-05-07 20:26 | 51.18874 | 13.79329 | 35740 ft | 435 kts | 191° |
| 2026-05-07 20:26 | 51.15893 | 13.78477 | 36002 ft | 436 kts | 191° |
| 2026-05-07 20:27 | 51.09951 | 13.76777 | 36076 ft | 436 kts | 191° |
| 2026-05-07 20:27 | 51.03978 | 13.75073 | 36098 ft | 436 kts | 191° |
| 2026-05-07 20:28 | 50.97999 | 13.73373 | 36089 ft | 436 kts | 192° |
| 2026-05-07 20:28 | 50.92026 | 13.71680 | 36087 ft | 436 kts | 191° |
| 2026-05-07 20:29 | 50.86014 | 13.70934 | 36069 ft | 437 kts | 183° |
| 2026-05-07 20:29 | 50.79919 | 13.70841 | 36061 ft | 438 kts | 181° |
| 2026-05-07 20:30 | 50.73825 | 13.70876 | 36058 ft | 438 kts | 181° |
| 2026-05-07 20:30 | 50.67728 | 13.70907 | 36058 ft | 438 kts | 182° |
| 2026-05-07 20:31 | 50.61668 | 13.70918 | 36054 ft | 438 kts | 182° |
| 2026-05-07 20:31 | 50.55567 | 13.70918 | 36050 ft | 438 kts | 182° |
| 2026-05-07 20:32 | 50.49468 | 13.70916 | 36050 ft | 439 kts | 182° |
| 2026-05-07 20:32 | 50.43359 | 13.70915 | 36051 ft | 439 kts | 182° |
| 2026-05-07 20:33 | 50.37254 | 13.70916 | 36049 ft | 439 kts | 182° |
| 2026-05-07 20:33 | 50.31187 | 13.70916 | 36048 ft | 439 kts | 182° |
| 2026-05-07 20:34 | 50.25083 | 13.70916 | 36048 ft | 439 kts | 182° |
| 2026-05-07 20:34 | 50.18972 | 13.70916 | 36048 ft | 439 kts | 182° |
| 2026-05-07 20:35 | 50.12867 | 13.70915 | 36051 ft | 439 kts | 182° |
| 2026-05-07 20:35 | 50.06797 | 13.70916 | 36050 ft | 439 kts | 182° |
| 2026-05-07 20:36 | 50.00685 | 13.70916 | 36048 ft | 439 kts | 182° |
| 2026-05-07 20:36 | 49.94571 | 13.70915 | 36045 ft | 439 kts | 182° |
| 2026-05-07 20:37 | 49.88453 | 13.70916 | 36046 ft | 439 kts | 182° |
| 2026-05-07 20:37 | 49.82381 | 13.70916 | 36039 ft | 439 kts | 182° |
| 2026-05-07 20:38 | 49.76280 | 13.70917 | 36052 ft | 438 kts | 182° |
| 2026-05-07 20:38 | 49.70186 | 13.70916 | 36054 ft | 438 kts | 182° |
| 2026-05-07 20:39 | 49.64088 | 13.70916 | 36055 ft | 438 kts | 182° |
| 2026-05-07 20:39 | 49.58033 | 13.70916 | 36050 ft | 438 kts | 182° |
| 2026-05-07 20:40 | 49.51935 | 13.70916 | 36047 ft | 438 kts | 182° |
| 2026-05-07 20:40 | 49.45837 | 13.70916 | 36045 ft | 438 kts | 182° |
| 2026-05-07 20:41 | 49.39738 | 13.70916 | 36042 ft | 438 kts | 182° |
| 2026-05-07 20:41 | 49.33681 | 13.70916 | 36042 ft | 438 kts | 183° |
| 2026-05-07 20:42 | 49.27585 | 13.70917 | 36050 ft | 438 kts | 183° |
| 2026-05-07 20:42 | 49.21490 | 13.70916 | 36050 ft | 438 kts | 183° |
| 2026-05-07 20:43 | 49.15389 | 13.70916 | 36053 ft | 438 kts | 183° |
| 2026-05-07 20:43 | 49.09290 | 13.70917 | 36055 ft | 438 kts | 183° |
| 2026-05-07 20:44 | 49.03232 | 13.70917 | 36056 ft | 438 kts | 183° |
| 2026-05-07 20:44 | 48.97132 | 13.70916 | 36055 ft | 438 kts | 183° |
| 2026-05-07 20:45 | 48.91029 | 13.70916 | 36045 ft | 439 kts | 183° |
| 2026-05-07 20:45 | 48.84935 | 13.70917 | 36059 ft | 438 kts | 183° |
| 2026-05-07 20:46 | 48.78847 | 13.70916 | 36062 ft | 437 kts | 183° |
| 2026-05-07 20:46 | 48.72805 | 13.70921 | 36063 ft | 437 kts | 183° |
| 2026-05-07 20:47 | 48.66713 | 13.70935 | 36061 ft | 438 kts | 184° |
| 2026-05-07 20:47 | 48.60618 | 13.70950 | 36059 ft | 438 kts | 184° |
| 2026-05-07 20:48 | 48.54522 | 13.70965 | 36061 ft | 438 kts | 183° |
| 2026-05-07 20:48 | 48.48467 | 13.70980 | 36061 ft | 438 kts | 183° |
| 2026-05-07 20:49 | 48.42366 | 13.70994 | 36052 ft | 438 kts | 184° |
| 2026-05-07 20:49 | 48.36273 | 13.71007 | 36068 ft | 438 kts | 184° |
| 2026-05-07 20:50 | 48.30174 | 13.71021 | 36057 ft | 438 kts | 184° |
| 2026-05-07 20:50 | 48.24119 | 13.71035 | 36063 ft | 438 kts | 184° |
| 2026-05-07 20:51 | 48.18024 | 13.71049 | 36057 ft | 438 kts | 184° |
| 2026-05-07 20:51 | 48.11929 | 13.71063 | 36055 ft | 438 kts | 184° |
| 2026-05-07 20:52 | 48.05840 | 13.71076 | 36061 ft | 438 kts | 184° |
| 2026-05-07 20:52 | 47.99792 | 13.71089 | 36058 ft | 438 kts | 184° |
| 2026-05-07 20:53 | 47.93704 | 13.71103 | 36061 ft | 437 kts | 184° |
| 2026-05-07 20:53 | 47.87626 | 13.71116 | 36073 ft | 437 kts | 184° |
| 2026-05-07 20:54 | 47.81548 | 13.71128 | 36055 ft | 437 kts | 185° |
| 2026-05-07 20:54 | 47.75521 | 13.71140 | 36080 ft | 436 kts | 184° |
| 2026-05-07 20:55 | 47.69462 | 13.71155 | 36073 ft | 436 kts | 184° |
| 2026-05-07 20:55 | 47.63397 | 13.71170 | 36084 ft | 436 kts | 185° |
| 2026-05-07 20:56 | 47.57337 | 13.71185 | 36079 ft | 435 kts | 185° |
| 2026-05-07 20:56 | 47.51330 | 13.71196 | 36081 ft | 435 kts | 185° |
| 2026-05-07 20:57 | 47.45277 | 13.71209 | 36088 ft | 435 kts | 185° |
| 2026-05-07 20:57 | 47.39231 | 13.71221 | 36076 ft | 435 kts | 185° |
| 2026-05-07 20:58 | 47.33174 | 13.71236 | 36085 ft | 435 kts | 185° |
| 2026-05-07 20:58 | 47.27156 | 13.71249 | 36087 ft | 435 kts | 185° |
| 2026-05-07 20:59 | 47.21102 | 13.71265 | 36081 ft | 435 kts | 185° |
| 2026-05-07 20:59 | 47.15043 | 13.71271 | 36083 ft | 435 kts | 185° |
| 2026-05-07 21:00 | 47.08990 | 13.71285 | 36085 ft | 435 kts | 185° |
| 2026-05-07 21:00 | 47.03968 | 13.71297 | 36082 ft | 435 kts | 185° |
| 2026-05-07 21:01 | 46.96945 | 13.71313 | 36053 ft | 434 kts | 186° |
| 2026-05-07 21:01 | 46.90905 | 13.71330 | 36073 ft | 434 kts | 186° |
| 2026-05-07 21:02 | 46.84875 | 13.71339 | 36068 ft | 433 kts | 186° |
| 2026-05-07 21:02 | 46.78878 | 13.71350 | 36063 ft | 433 kts | 186° |
| 2026-05-07 21:03 | 46.72844 | 13.71365 | 36067 ft | 433 kts | 186° |
| 2026-05-07 21:03 | 46.67831 | 13.71376 | 36061 ft | 433 kts | 186° |
| 2026-05-07 21:04 | 46.61794 | 13.71388 | 36067 ft | 434 kts | 186° |
| 2026-05-07 21:04 | 46.55760 | 13.71400 | 36044 ft | 434 kts | 186° |
| 2026-05-07 21:05 | 46.48742 | 13.71607 | 36065 ft | 435 kts | 184° |
| 2026-05-07 21:05 | 46.43676 | 13.72050 | 36073 ft | 435 kts | 182° |
| 2026-05-07 21:06 | 46.37666 | 13.72630 | 36058 ft | 436 kts | 182° |
| 2026-05-07 21:06 | 46.31612 | 13.73187 | 36043 ft | 436 kts | 183° |
| 2026-05-07 21:07 | 46.25567 | 13.73714 | 36060 ft | 435 kts | 183° |
| 2026-05-07 21:07 | 46.19527 | 13.74229 | 36042 ft | 435 kts | 183° |
| 2026-05-07 21:08 | 46.13481 | 13.74742 | 36023 ft | 435 kts | 183° |
| 2026-05-07 21:08 | 46.07482 | 13.75253 | 36041 ft | 434 kts | 183° |
| 2026-05-07 21:09 | 46.01449 | 13.75766 | 36043 ft | 434 kts | 183° |
| 2026-05-07 21:09 | 45.95415 | 13.76278 | 36046 ft | 434 kts | 183° |
| 2026-05-07 21:10 | 45.89378 | 13.76789 | 36039 ft | 435 kts | 183° |
| 2026-05-07 21:10 | 45.83380 | 13.77295 | 36049 ft | 435 kts | 183° |
| 2026-05-07 21:11 | 45.77343 | 13.77804 | 36046 ft | 434 kts | 183° |
| 2026-05-07 21:11 | 45.68295 | 13.78566 | 36036 ft | 434 kts | 184° |
| 2026-05-07 21:12 | 45.62309 | 13.79068 | 36037 ft | 433 kts | 184° |
| 2026-05-07 21:12 | 45.56294 | 13.79570 | 36047 ft | 433 kts | 184° |
| 2026-05-07 21:13 | 45.50274 | 13.80073 | 36045 ft | 433 kts | 184° |
| 2026-05-07 21:13 | 45.44266 | 13.80573 | 36047 ft | 432 kts | 184° |
| 2026-05-07 21:14 | 45.38259 | 13.81072 | 36048 ft | 432 kts | 184° |
| 2026-05-07 21:14 | 45.32291 | 13.81567 | 36023 ft | 432 kts | 184° |
| 2026-05-07 21:15 | 45.26296 | 13.82065 | 36046 ft | 431 kts | 184° |
| 2026-05-07 21:15 | 45.20314 | 13.82558 | 36046 ft | 431 kts | 184° |
| 2026-05-07 21:16 | 45.14334 | 13.83051 | 36056 ft | 430 kts | 184° |
| 2026-05-07 21:16 | 45.08393 | 13.83541 | 36050 ft | 430 kts | 184° |
| 2026-05-07 21:17 | 45.02424 | 13.84030 | 36051 ft | 430 kts | 184° |
| 2026-05-07 21:17 | 44.96450 | 13.84518 | 36075 ft | 430 kts | 184° |
| 2026-05-07 21:18 | 44.90479 | 13.85006 | 36065 ft | 430 kts | 184° |
| 2026-05-07 21:18 | 44.84505 | 13.85493 | 36079 ft | 430 kts | 184° |
| 2026-05-07 21:19 | 44.78568 | 13.85975 | 36070 ft | 430 kts | 184° |
| 2026-05-07 21:19 | 44.72590 | 13.86461 | 36056 ft | 430 kts | 184° |
| 2026-05-07 21:20 | 44.66612 | 13.86946 | 36061 ft | 430 kts | 184° |
| 2026-05-07 21:20 | 44.60630 | 13.87430 | 36049 ft | 431 kts | 184° |
| 2026-05-07 21:21 | 44.54691 | 13.87909 | 36045 ft | 430 kts | 184° |
| 2026-05-07 21:21 | 44.48709 | 13.88392 | 36040 ft | 430 kts | 185° |
| 2026-05-07 21:22 | 44.42735 | 13.88872 | 36039 ft | 430 kts | 185° |
| 2026-05-07 21:22 | 44.36765 | 13.89351 | 36041 ft | 430 kts | 185° |
| 2026-05-07 21:23 | 44.30794 | 13.89829 | 36036 ft | 429 kts | 185° |
| 2026-05-07 21:23 | 44.24885 | 13.90303 | 36028 ft | 428 kts | 185° |
| 2026-05-07 21:24 | 44.18945 | 13.90776 | 36037 ft | 427 kts | 185° |
| 2026-05-07 21:24 | 44.13008 | 13.91248 | 36026 ft | 427 kts | 185° |
| 2026-05-07 21:25 | 44.07078 | 13.91719 | 36034 ft | 426 kts | 185° |
| 2026-05-07 21:25 | 44.01155 | 13.92187 | 36034 ft | 426 kts | 185° |
| 2026-05-07 21:26 | 43.95274 | 13.92641 | 36034 ft | 426 kts | 185° |
| 2026-05-07 21:26 | 43.89355 | 13.93092 | 36034 ft | 426 kts | 185° |
| 2026-05-07 21:27 | 43.83431 | 13.93543 | 36035 ft | 426 kts | 185° |
| 2026-05-07 21:27 | 43.77551 | 13.93990 | 36032 ft | 426 kts | 185° |
| 2026-05-07 21:28 | 43.71636 | 13.94441 | 36033 ft | 425 kts | 185° |
| 2026-05-07 21:28 | 43.65743 | 13.94890 | 36033 ft | 424 kts | 185° |
| 2026-05-07 21:29 | 43.59851 | 13.95335 | 36032 ft | 424 kts | 185° |
| 2026-05-07 21:29 | 43.53998 | 13.95777 | 36031 ft | 424 kts | 185° |
| 2026-05-07 21:30 | 43.48120 | 13.96221 | 36032 ft | 423 kts | 185° |
| 2026-05-07 21:30 | 43.42247 | 13.96663 | 36031 ft | 423 kts | 185° |
| 2026-05-07 21:31 | 43.36375 | 13.97104 | 36005 ft | 423 kts | 185° |
| 2026-05-07 21:31 | 43.30504 | 13.97543 | 36029 ft | 422 kts | 185° |
| 2026-05-07 21:32 | 43.24679 | 13.97980 | 36029 ft | 422 kts | 185° |
| 2026-05-07 21:32 | 43.18809 | 13.98418 | 36029 ft | 422 kts | 185° |
| 2026-05-07 21:33 | 43.12944 | 13.98855 | 36028 ft | 422 kts | 184° |
| 2026-05-07 21:33 | 43.07083 | 13.99292 | 36027 ft | 422 kts | 184° |
| 2026-05-07 21:34 | 43.01223 | 13.99727 | 36027 ft | 422 kts | 184° |
| 2026-05-07 21:34 | 42.95401 | 14.00159 | 36021 ft | 422 kts | 184° |
| 2026-05-07 21:35 | 42.89542 | 14.00592 | 36024 ft | 422 kts | 184° |
| 2026-05-07 21:35 | 42.83678 | 14.01026 | 36024 ft | 422 kts | 184° |
| 2026-05-07 21:36 | 42.77818 | 14.01458 | 36033 ft | 422 kts | 184° |
| 2026-05-07 21:36 | 42.71989 | 14.01886 | 36033 ft | 422 kts | 184° |
| 2026-05-07 21:37 | 42.66118 | 14.02318 | 36033 ft | 422 kts | 184° |
| 2026-05-07 21:37 | 42.60251 | 14.02748 | 36028 ft | 422 kts | 184° |
| 2026-05-07 21:38 | 42.54378 | 14.03178 | 36033 ft | 423 kts | 184° |
| 2026-05-07 21:38 | 42.48545 | 14.03604 | 36032 ft | 423 kts | 184° |
| 2026-05-07 21:39 | 42.42672 | 14.04033 | 36036 ft | 423 kts | 184° |
| 2026-05-07 21:39 | 42.36794 | 14.04461 | 36037 ft | 423 kts | 184° |
| 2026-05-07 21:40 | 42.30910 | 14.04888 | 36040 ft | 424 kts | 184° |
| 2026-05-07 21:40 | 42.25060 | 14.05312 | 36038 ft | 424 kts | 184° |
| 2026-05-07 21:41 | 42.19168 | 14.05740 | 36040 ft | 424 kts | 184° |
| 2026-05-07 21:41 | 42.13274 | 14.06165 | 36035 ft | 425 kts | 184° |
| 2026-05-07 21:42 | 42.07366 | 14.06591 | 36039 ft | 425 kts | 184° |
| 2026-05-07 21:42 | 42.01499 | 14.07013 | 36041 ft | 425 kts | 184° |
| 2026-05-07 21:43 | 41.95586 | 14.07437 | 36034 ft | 425 kts | 184° |
| 2026-05-07 21:43 | 41.89674 | 14.07862 | 36038 ft | 425 kts | 184° |
| 2026-05-07 21:44 | 41.83763 | 14.08297 | 36030 ft | 425 kts | 184° |
| 2026-05-07 21:44 | 41.77879 | 14.08741 | 36022 ft | 426 kts | 184° |
| 2026-05-07 21:45 | 41.71962 | 14.09190 | 36014 ft | 425 kts | 184° |
| 2026-05-07 21:45 | 41.66056 | 14.09635 | 36024 ft | 424 kts | 184° |
| 2026-05-07 21:46 | 41.60160 | 14.10075 | 36010 ft | 424 kts | 184° |
| 2026-05-07 21:46 | 41.54264 | 14.10517 | 36003 ft | 424 kts | 184° |
| 2026-05-07 21:47 | 41.48416 | 14.10955 | 35991 ft | 423 kts | 184° |
| 2026-05-07 21:47 | 41.42553 | 14.11392 | 35987 ft | 422 kts | 184° |
| 2026-05-07 21:48 | 41.36689 | 14.11827 | 35968 ft | 422 kts | 184° |
| 2026-05-07 21:48 | 41.30825 | 14.12262 | 35946 ft | 422 kts | 184° |
| 2026-05-07 21:49 | 41.25007 | 14.12694 | 35950 ft | 421 kts | 184° |
| 2026-05-07 21:49 | 41.19154 | 14.13127 | 35938 ft | 421 kts | 184° |
| 2026-05-07 21:50 | 41.13298 | 14.13559 | 35938 ft | 421 kts | 184° |
| 2026-05-07 21:50 | 41.07444 | 14.13991 | 35935 ft | 421 kts | 185° |
| 2026-05-07 21:51 | 41.01646 | 14.14419 | 35938 ft | 420 kts | 185° |
| 2026-05-07 21:51 | 40.95816 | 14.14846 | 35938 ft | 420 kts | 185° |
| 2026-05-07 21:52 | 40.89982 | 14.15274 | 35907 ft | 420 kts | 185° |
| 2026-05-07 21:52 | 40.84159 | 14.15701 | 35913 ft | 419 kts | 185° |
| 2026-05-07 21:53 | 40.78385 | 14.16124 | 35911 ft | 418 kts | 185° |
| 2026-05-07 21:53 | 40.72581 | 14.16546 | 35917 ft | 418 kts | 185° |
| 2026-05-07 21:54 | 40.66773 | 14.16968 | 35910 ft | 418 kts | 185° |
| 2026-05-07 21:54 | 40.60960 | 14.17391 | 35918 ft | 418 kts | 185° |
| 2026-05-07 21:55 | 40.55191 | 14.17809 | 35918 ft | 418 kts | 185° |
| 2026-05-07 21:55 | 40.49385 | 14.18230 | 35918 ft | 418 kts | 185° |
| 2026-05-07 21:56 | 40.43573 | 14.18650 | 35917 ft | 418 kts | 185° |
| 2026-05-07 21:56 | 40.37758 | 14.19070 | 35920 ft | 419 kts | 185° |
| 2026-05-07 21:57 | 40.31983 | 14.19486 | 35919 ft | 419 kts | 185° |
| 2026-05-07 21:57 | 40.26164 | 14.19905 | 35918 ft | 419 kts | 185° |
| 2026-05-07 21:58 | 40.20360 | 14.20324 | 35919 ft | 416 kts | 185° |
| 2026-05-07 21:58 | 40.14588 | 14.20739 | 35920 ft | 415 kts | 185° |
| 2026-05-07 21:59 | 40.08857 | 14.21148 | 35920 ft | 415 kts | 185° |
| 2026-05-07 21:59 | 40.03088 | 14.21558 | 35915 ft | 415 kts | 185° |
| 2026-05-07 22:00 | 39.97344 | 14.21969 | 35924 ft | 412 kts | 186° |
| 2026-05-07 22:00 | 39.91626 | 14.22378 | 35925 ft | 411 kts | 186° |
| 2026-05-07 22:01 | 39.85920 | 14.22783 | 35923 ft | 411 kts | 186° |
| 2026-05-07 22:01 | 39.80248 | 14.23184 | 35923 ft | 411 kts | 186° |
| 2026-05-07 22:02 | 39.74540 | 14.23588 | 35918 ft | 411 kts | 186° |
| 2026-05-07 22:02 | 39.68828 | 14.23992 | 35919 ft | 411 kts | 186° |
| 2026-05-07 22:03 | 39.63119 | 14.24395 | 35919 ft | 411 kts | 186° |
| 2026-05-07 22:03 | 39.57449 | 14.24795 | 35903 ft | 411 kts | 186° |
| 2026-05-07 22:04 | 39.51754 | 14.25197 | 35916 ft | 409 kts | 186° |
| 2026-05-07 22:04 | 39.46066 | 14.25597 | 35915 ft | 409 kts | 186° |
| 2026-05-07 22:05 | 39.40380 | 14.25995 | 35912 ft | 409 kts | 186° |
| 2026-05-07 22:05 | 39.34728 | 14.26390 | 35908 ft | 409 kts | 186° |
| 2026-05-07 22:06 | 39.29041 | 14.26775 | 35911 ft | 409 kts | 186° |
| 2026-05-07 22:06 | 39.23362 | 14.27088 | 35908 ft | 408 kts | 187° |
| 2026-05-07 22:07 | 39.17686 | 14.27378 | 35905 ft | 408 kts | 187° |
| 2026-05-07 22:07 | 39.12013 | 14.27673 | 35895 ft | 407 kts | 187° |
| 2026-05-07 22:08 | 39.06420 | 14.27972 | 35904 ft | 404 kts | 187° |
| 2026-05-07 22:08 | 39.00807 | 14.28267 | 35900 ft | 403 kts | 187° |
| 2026-05-07 22:09 | 38.95202 | 14.28561 | 35901 ft | 403 kts | 187° |
| 2026-05-07 22:09 | 38.89600 | 14.28857 | 35897 ft | 402 kts | 188° |
| 2026-05-07 22:10 | 38.84066 | 14.29151 | 35900 ft | 400 kts | 188° |
| 2026-05-07 22:10 | 38.78511 | 14.29442 | 35903 ft | 400 kts | 188° |
| 2026-05-07 22:11 | 38.72954 | 14.29732 | 35900 ft | 399 kts | 188° |
| 2026-05-07 22:11 | 38.67406 | 14.30024 | 35890 ft | 398 kts | 189° |
| 2026-05-07 22:12 | 38.61910 | 14.30318 | 35903 ft | 394 kts | 189° |
| 2026-05-07 22:12 | 38.56479 | 14.30599 | 35907 ft | 393 kts | 189° |
| 2026-05-07 22:13 | 38.51015 | 14.30879 | 35904 ft | 393 kts | 189° |
| 2026-05-07 22:13 | 38.45550 | 14.31162 | 35903 ft | 393 kts | 189° |
| 2026-05-07 22:14 | 38.40104 | 14.31448 | 35914 ft | 391 kts | 189° |
| 2026-05-07 22:14 | 38.34707 | 14.31728 | 35909 ft | 391 kts | 189° |
| 2026-05-07 22:15 | 38.29279 | 14.32008 | 35910 ft | 391 kts | 189° |
| 2026-05-07 22:15 | 38.23847 | 14.32289 | 35881 ft | 391 kts | 190° |
| 2026-05-07 22:16 | 38.18421 | 14.32571 | 35919 ft | 390 kts | 190° |
| 2026-05-07 22:16 | 38.13000 | 14.32851 | 35921 ft | 390 kts | 190° |
| 2026-05-07 22:17 | 38.07616 | 14.33127 | 35918 ft | 390 kts | 190° |
| 2026-05-07 22:17 | 38.02197 | 14.33405 | 35924 ft | 390 kts | 190° |
| 2026-05-07 22:18 | 37.94001 | 14.33817 | 35927 ft | 396 kts | 191° |
| 2026-05-07 22:19 | 37.88551 | 14.34102 | 35928 ft | 393 kts | 191° |
| 2026-05-07 22:19 | 37.83087 | 14.34387 | 35936 ft | 393 kts | 191° |
| 2026-05-07 22:20 | 37.77628 | 14.34666 | 35940 ft | 393 kts | 191° |
| 2026-05-07 22:20 | 37.72111 | 14.34937 | 35937 ft | 401 kts | 190° |
| 2026-05-07 22:21 | 37.66520 | 14.35219 | 35949 ft | 403 kts | 190° |
| 2026-05-07 22:21 | 37.60952 | 14.35510 | 35944 ft | 403 kts | 190° |
| 2026-05-07 22:22 | 37.55351 | 14.35799 | 35937 ft | 403 kts | 190° |
| 2026-05-07 22:22 | 37.49750 | 14.36084 | 35937 ft | 403 kts | 190° |
| 2026-05-07 22:23 | 37.44145 | 14.36367 | 35922 ft | 403 kts | 190° |
| 2026-05-07 22:23 | 37.38586 | 14.36649 | 35929 ft | 402 kts | 190° |
| 2026-05-07 22:24 | 37.32994 | 14.36933 | 35926 ft | 402 kts | 190° |
| 2026-05-07 22:24 | 37.27395 | 14.37215 | 35922 ft | 403 kts | 189° |
| 2026-05-07 22:25 | 37.21778 | 14.37495 | 35928 ft | 404 kts | 189° |
| 2026-05-07 22:25 | 37.16195 | 14.37776 | 35926 ft | 404 kts | 189° |
| 2026-05-07 22:26 | 37.10572 | 14.38058 | 35929 ft | 404 kts | 189° |
| 2026-05-07 22:26 | 37.04949 | 14.38340 | 35924 ft | 405 kts | 189° |
| 2026-05-07 22:27 | 36.99302 | 14.38621 | 35936 ft | 407 kts | 189° |
| 2026-05-07 22:27 | 36.93642 | 14.38905 | 35934 ft | 407 kts | 189° |
| 2026-05-07 22:28 | 36.88025 | 14.39141 | 35934 ft | 402 kts | 193° |
| 2026-05-07 22:28 | 36.85278 | 14.38854 | 35933 ft | 391 kts | 200° |
| 2026-05-07 22:28 | 36.82613 | 14.38247 | 35912 ft | 388 kts | 202° |
| 2026-05-07 22:29 | 36.77311 | 14.36851 | 35931 ft | 390 kts | 202° |
| 2026-05-07 22:29 | 36.72005 | 14.35424 | 35928 ft | 390 kts | 202° |
| 2026-05-07 22:30 | 36.66732 | 14.34005 | 35928 ft | 390 kts | 202° |
| 2026-05-07 22:30 | 36.61425 | 14.32578 | 35928 ft | 390 kts | 202° |
| 2026-05-07 22:31 | 36.56100 | 14.31146 | 35927 ft | 393 kts | 202° |
| 2026-05-07 22:31 | 36.51846 | 14.30005 | 35928 ft | 394 kts | 202° |
| 2026-05-07 22:32 | 36.46517 | 14.28579 | 35928 ft | 394 kts | 202° |
| 2026-05-07 22:32 | 36.41152 | 14.27145 | 35926 ft | 395 kts | 202° |
| 2026-05-07 22:33 | 36.35785 | 14.25711 | 35921 ft | 395 kts | 202° |
| 2026-05-07 22:33 | 36.30394 | 14.24273 | 35930 ft | 397 kts | 202° |
| 2026-05-07 22:34 | 36.25025 | 14.22843 | 35930 ft | 397 kts | 202° |
| 2026-05-07 22:34 | 36.19622 | 14.21407 | 35954 ft | 397 kts | 202° |
| 2026-05-07 22:35 | 36.14252 | 14.19983 | 35930 ft | 393 kts | 202° |
| 2026-05-07 22:35 | 36.08888 | 14.18559 | 35927 ft | 395 kts | 202° |
| 2026-05-07 22:36 | 36.03510 | 14.17134 | 35928 ft | 395 kts | 202° |
| 2026-05-07 22:36 | 35.98164 | 14.15720 | 35931 ft | 395 kts | 202° |
| 2026-05-07 22:37 | 35.92785 | 14.14300 | 35928 ft | 395 kts | 202° |
| 2026-05-07 22:37 | 35.87400 | 14.12879 | 35932 ft | 397 kts | 201° |
| 2026-05-07 22:38 | 35.81994 | 14.11455 | 35933 ft | 398 kts | 201° |
| 2026-05-07 22:38 | 35.76619 | 14.10042 | 35936 ft | 398 kts | 201° |
| 2026-05-07 22:39 | 35.71209 | 14.08621 | 35933 ft | 398 kts | 201° |
| 2026-05-07 22:39 | 35.65796 | 14.07201 | 35913 ft | 398 kts | 201° |
| 2026-05-07 22:40 | 35.60371 | 14.05780 | 35927 ft | 399 kts | 201° |
| 2026-05-07 22:40 | 35.54944 | 14.04361 | 35928 ft | 399 kts | 201° |
| 2026-05-07 22:41 | 35.49548 | 14.02952 | 35928 ft | 399 kts | 201° |
| 2026-05-07 22:41 | 35.44118 | 14.01536 | 35927 ft | 399 kts | 201° |
| 2026-05-07 22:42 | 35.38699 | 14.00126 | 35931 ft | 397 kts | 200° |
| 2026-05-07 22:42 | 35.33308 | 13.98724 | 35775 ft | 395 kts | 200° |
| 2026-05-07 22:42 | 35.30657 | 13.98035 | 35434 ft | 395 kts | 200° |
| 2026-05-07 22:43 | 35.27968 | 13.97336 | 35099 ft | 395 kts | 200° |
| 2026-05-07 22:43 | 35.25275 | 13.96637 | 34766 ft | 396 kts | 200° |
| 2026-05-07 22:43 | 35.22579 | 13.95937 | 34383 ft | 396 kts | 200° |
| 2026-05-07 22:43 | 35.19884 | 13.95238 | 33953 ft | 396 kts | 200° |
| 2026-05-07 22:44 | 35.17184 | 13.94539 | 33476 ft | 397 kts | 200° |
| 2026-05-07 22:44 | 35.14479 | 13.93838 | 33002 ft | 398 kts | 200° |
| 2026-05-07 22:44 | 35.11768 | 13.93137 | 32549 ft | 399 kts | 200° |
| 2026-05-07 22:44 | 35.09091 | 13.92445 | 32088 ft | 399 kts | 199° |
| 2026-05-07 22:45 | 35.06377 | 13.91745 | 31643 ft | 398 kts | 199° |
| 2026-05-07 22:45 | 35.03672 | 13.91048 | 31208 ft | 395 kts | 199° |
| 2026-05-07 22:45 | 35.00992 | 13.90359 | 30771 ft | 392 kts | 199° |
| 2026-05-07 22:45 | 34.98332 | 13.89674 | 30345 ft | 389 kts | 199° |
| 2026-05-07 22:46 | 34.95694 | 13.88996 | 29910 ft | 386 kts | 199° |
| 2026-05-07 22:46 | 34.93073 | 13.88321 | 29395 ft | 384 kts | 199° |
| 2026-05-07 22:46 | 34.90464 | 13.87650 | 28911 ft | 383 kts | 199° |
| 2026-05-07 22:46 | 34.87865 | 13.86981 | 28436 ft | 381 kts | 199° |
| 2026-05-07 22:47 | 34.85318 | 13.86327 | 27981 ft | 378 kts | 199° |
| 2026-05-07 22:47 | 34.82754 | 13.85669 | 27531 ft | 375 kts | 199° |
| 2026-05-07 22:47 | 34.80210 | 13.85018 | 27100 ft | 371 kts | 199° |
| 2026-05-07 22:47 | 34.77698 | 13.84375 | 26651 ft | 367 kts | 200° |
| 2026-05-07 22:48 | 34.75206 | 13.83737 | 26220 ft | 364 kts | 200° |
| 2026-05-07 22:48 | 34.72732 | 13.83102 | 25789 ft | 362 kts | 200° |
| 2026-05-07 22:48 | 34.70272 | 13.82472 | 25343 ft | 360 kts | 199° |
| 2026-05-07 22:48 | 34.67829 | 13.81816 | 24963 ft | 357 kts | 202° |
| 2026-05-07 22:49 | 34.65477 | 13.81030 | 24612 ft | 354 kts | 203° |
| 2026-05-07 22:49 | 34.63113 | 13.80202 | 24247 ft | 352 kts | 203° |
| 2026-05-07 22:49 | 34.60767 | 13.79366 | 23892 ft | 350 kts | 203° |
| 2026-05-07 22:49 | 34.58437 | 13.78529 | 23532 ft | 349 kts | 203° |
| 2026-05-07 22:50 | 34.56118 | 13.77695 | 23152 ft | 346 kts | 204° |
| 2026-05-07 22:50 | 34.53824 | 13.76870 | 22825 ft | 342 kts | 204° |
| 2026-05-07 22:50 | 34.51555 | 13.76052 | 22513 ft | 339 kts | 204° |
| 2026-05-07 22:50 | 34.49298 | 13.75238 | 22208 ft | 337 kts | 204° |
| 2026-05-07 22:51 | 34.47086 | 13.74440 | 21897 ft | 335 kts | 204° |
| 2026-05-07 22:51 | 34.44855 | 13.73635 | 21579 ft | 334 kts | 204° |
| 2026-05-07 22:51 | 34.42636 | 13.72836 | 21282 ft | 332 kts | 204° |
| 2026-05-07 22:51 | 34.40424 | 13.72040 | 20983 ft | 331 kts | 204° |
| 2026-05-07 22:52 | 34.38223 | 13.71248 | 20689 ft | 329 kts | 204° |
| 2026-05-07 22:52 | 34.36036 | 13.70461 | 20399 ft | 327 kts | 204° |
| 2026-05-07 22:52 | 34.33858 | 13.69679 | 20114 ft | 326 kts | 204° |
| 2026-05-07 22:52 | 34.31694 | 13.68901 | 19819 ft | 324 kts | 204° |
| 2026-05-07 22:53 | 34.29537 | 13.68127 | 19541 ft | 322 kts | 204° |
| 2026-05-07 22:53 | 34.27392 | 13.67357 | 19261 ft | 321 kts | 204° |
| 2026-05-07 22:53 | 34.25288 | 13.66603 | 18991 ft | 319 kts | 204° |
| 2026-05-07 22:53 | 34.23164 | 13.65842 | 18715 ft | 318 kts | 204° |
| 2026-05-07 22:54 | 34.21048 | 13.65083 | 18422 ft | 317 kts | 204° |
| 2026-05-07 22:54 | 34.18934 | 13.64326 | 18143 ft | 317 kts | 204° |
| 2026-05-07 22:54 | 34.16825 | 13.63570 | 17814 ft | 316 kts | 204° |
| 2026-05-07 22:54 | 34.14723 | 13.62817 | 17503 ft | 314 kts | 204° |
| 2026-05-07 22:55 | 34.12637 | 13.62072 | 17194 ft | 312 kts | 204° |
| 2026-05-07 22:55 | 34.10594 | 13.61343 | 16892 ft | 309 kts | 204° |
| 2026-05-07 22:55 | 34.08538 | 13.60608 | 16590 ft | 307 kts | 204° |
| 2026-05-07 22:55 | 34.06498 | 13.59880 | 16291 ft | 305 kts | 203° |
| 2026-05-07 22:56 | 34.04470 | 13.59157 | 15998 ft | 303 kts | 203° |
| 2026-05-07 22:56 | 34.02458 | 13.58439 | 15701 ft | 300 kts | 203° |
| 2026-05-07 22:56 | 34.00463 | 13.57728 | 15412 ft | 298 kts | 203° |
| 2026-05-07 22:56 | 33.98482 | 13.57022 | 15126 ft | 296 kts | 202° |
| 2026-05-07 22:57 | 33.96516 | 13.56322 | 14825 ft | 293 kts | 202° |
| 2026-05-07 22:57 | 33.94594 | 13.55638 | 14549 ft | 291 kts | 202° |
| 2026-05-07 22:57 | 33.92663 | 13.54951 | 14267 ft | 288 kts | 202° |
| 2026-05-07 22:57 | 33.90745 | 13.54269 | 13990 ft | 286 kts | 202° |
| 2026-05-07 22:58 | 33.88843 | 13.53593 | 13703 ft | 284 kts | 201° |
| 2026-05-07 22:58 | 33.86955 | 13.52921 | 13400 ft | 282 kts | 201° |
| 2026-05-07 22:58 | 33.85074 | 13.52252 | 13094 ft | 282 kts | 201° |
| 2026-05-07 22:58 | 33.83191 | 13.51584 | 12792 ft | 282 kts | 201° |
| 2026-05-07 22:59 | 33.81312 | 13.50917 | 12494 ft | 282 kts | 200° |
| 2026-05-07 22:59 | 33.79430 | 13.50248 | 12192 ft | 282 kts | 200° |
| 2026-05-07 22:59 | 33.77574 | 13.49590 | 11908 ft | 282 kts | 200° |
| 2026-05-07 22:59 | 33.75690 | 13.48923 | 11601 ft | 282 kts | 200° |
| 2026-05-07 23:00 | 33.73810 | 13.48259 | 11317 ft | 282 kts | 200° |
| 2026-05-07 23:00 | 33.71928 | 13.47593 | 11014 ft | 283 kts | 199° |
| 2026-05-07 23:00 | 33.70032 | 13.46921 | 10731 ft | 285 kts | 199° |
| 2026-05-07 23:00 | 33.68130 | 13.46248 | 10452 ft | 286 kts | 199° |
| 2026-05-07 23:01 | 33.66220 | 13.45573 | 10167 ft | 285 kts | 199° |
| 2026-05-07 23:01 | 33.64364 | 13.44919 | 9892 ft | 272 kts | 198° |
| 2026-05-07 23:01 | 33.62579 | 13.44290 | 9632 ft | 265 kts | 199° |
| 2026-05-07 23:01 | 33.60840 | 13.43677 | 9394 ft | 264 kts | 199° |
| 2026-05-07 23:02 | 33.59074 | 13.43054 | 9141 ft | 265 kts | 199° |
| 2026-05-07 23:02 | 33.57304 | 13.42430 | 8890 ft | 265 kts | 199° |
| 2026-05-07 23:02 | 33.55536 | 13.41806 | 8649 ft | 265 kts | 199° |
| 2026-05-07 23:02 | 33.53767 | 13.41182 | 8395 ft | 265 kts | 199° |
| 2026-05-07 23:03 | 33.51998 | 13.40559 | 8147 ft | 265 kts | 200° |
| 2026-05-07 23:03 | 33.50227 | 13.39936 | 7899 ft | 265 kts | 200° |
| 2026-05-07 23:03 | 33.48456 | 13.39313 | 7665 ft | 265 kts | 200° |
| 2026-05-07 23:03 | 33.46688 | 13.38690 | 7526 ft | 265 kts | 199° |
| 2026-05-07 23:04 | 33.44916 | 13.38067 | 7388 ft | 266 kts | 200° |
| 2026-05-07 23:04 | 33.43168 | 13.37453 | 7221 ft | 265 kts | 200° |
| 2026-05-07 23:04 | 33.41394 | 13.36830 | 7060 ft | 266 kts | 200° |
| 2026-05-07 23:04 | 33.39622 | 13.36207 | 6896 ft | 266 kts | 200° |
| 2026-05-07 23:05 | 33.37845 | 13.35584 | 6733 ft | 266 kts | 200° |
| 2026-05-07 23:05 | 33.36071 | 13.34961 | 6571 ft | 266 kts | 200° |
| 2026-05-07 23:05 | 33.34296 | 13.34339 | 6407 ft | 266 kts | 200° |
| 2026-05-07 23:05 | 33.32517 | 13.33715 | 6231 ft | 266 kts | 200° |
| 2026-05-07 23:06 | 33.30741 | 13.33091 | 6069 ft | 266 kts | 200° |
| 2026-05-07 23:06 | 33.28989 | 13.32478 | 5891 ft | 266 kts | 200° |
| 2026-05-07 23:06 | 33.27218 | 13.31857 | 5725 ft | 265 kts | 200° |
| 2026-05-07 23:06 | 33.25448 | 13.31238 | 5561 ft | 265 kts | 200° |
| 2026-05-07 23:07 | 33.23681 | 13.30619 | 5386 ft | 265 kts | 200° |
| 2026-05-07 23:07 | 33.21915 | 13.30000 | 5199 ft | 265 kts | 199° |
| 2026-05-07 23:07 | 33.20146 | 13.29382 | 5046 ft | 265 kts | 198° |
| 2026-05-07 23:07 | 33.18378 | 13.28765 | 4877 ft | 265 kts | 199° |
| 2026-05-07 23:08 | 33.16612 | 13.28149 | 4713 ft | 264 kts | 199° |
| 2026-05-07 23:08 | 33.14878 | 13.27544 | 4545 ft | 260 kts | 199° |
| 2026-05-07 23:08 | 33.13141 | 13.26938 | 4358 ft | 262 kts | 198° |
| 2026-05-07 23:08 | 33.11380 | 13.26322 | 4140 ft | 265 kts | 198° |
| 2026-05-07 23:09 | 33.09607 | 13.25703 | 3922 ft | 265 kts | 198° |
| 2026-05-07 23:09 | 33.07842 | 13.25088 | 3697 ft | 264 kts | 198° |
| 2026-05-07 23:09 | 33.06080 | 13.24474 | 3487 ft | 264 kts | 197° |
| 2026-05-07 23:09 | 33.04320 | 13.23862 | 3276 ft | 263 kts | 197° |
| 2026-05-07 23:10 | 33.02594 | 13.23262 | 3068 ft | 252 kts | 198° |
| 2026-05-07 23:10 | 33.00975 | 13.22700 | 2845 ft | 239 kts | 198° |
| 2026-05-07 23:10 | 32.99414 | 13.22157 | 2648 ft | 229 kts | 197° |
| 2026-05-07 23:10 | 32.97910 | 13.21633 | 2458 ft | 219 kts | 197° |
| 2026-05-07 23:11 | 32.96498 | 13.21142 | 2266 ft | 205 kts | 197° |
| 2026-05-07 23:11 | 32.95179 | 13.20684 | 2085 ft | 191 kts | 197° |
| 2026-05-07 23:11 | 32.93921 | 13.20247 | 2020 ft | 188 kts | 196° |
| 2026-05-07 23:11 | 32.92664 | 13.19810 | 2008 ft | 188 kts | 196° |
| 2026-05-07 23:12 | 32.91407 | 13.19373 | 2009 ft | 188 kts | 196° |
| 2026-05-07 23:12 | 32.90159 | 13.18939 | 2003 ft | 187 kts | 196° |
| 2026-05-07 23:12 | 32.88932 | 13.18513 | 1997 ft | 186 kts | 195° |
| 2026-05-07 23:12 | 32.87690 | 13.18083 | 1920 ft | 186 kts | 196° |
| 2026-05-07 23:13 | 32.86440 | 13.17652 | 1844 ft | 187 kts | 195° |
| 2026-05-07 23:13 | 32.85184 | 13.17274 | 1783 ft | 185 kts | 192° |
| 2026-05-07 23:13 | 32.83923 | 13.17004 | 1706 ft | 183 kts | 187° |
| 2026-05-07 23:13 | 32.82662 | 13.16847 | 1651 ft | 182 kts | 184° |
| 2026-05-07 23:14 | 32.81397 | 13.16738 | 1650 ft | 182 kts | 183° |
| 2026-05-07 23:14 | 32.80135 | 13.16638 | 1656 ft | 182 kts | 183° |
| 2026-05-07 23:14 | 32.78879 | 13.16538 | 1651 ft | 181 kts | 182° |
| 2026-05-07 23:14 | 32.77641 | 13.16437 | 1645 ft | 182 kts | 184° |
| 2026-05-07 23:15 | 32.76368 | 13.16343 | 1642 ft | 183 kts | 183° |
| 2026-05-07 23:15 | 32.75195 | 13.16265 | 1656 ft | 153 kts | 188° |
| 2026-05-07 23:15 | 32.74176 | 13.16175 | 1636 ft | 144 kts | 186° |
| 2026-05-07 23:15 | 32.73191 | 13.16037 | 1491 ft | 142 kts | 187° |
| 2026-05-07 23:16 | 32.72221 | 13.15869 | 1302 ft | 139 kts | 187° |
| 2026-05-07 23:16 | 32.71260 | 13.15745 | 1125 ft | 138 kts | 182° |
| 2026-05-07 23:16 | 32.70293 | 13.15725 | 872 ft | 140 kts | 178° |
| 2026-05-07 23:16 | 32.69322 | 13.15741 | 691 ft | 143 kts | 178° |
| 2026-05-07 23:17 | 32.68324 | 13.15807 | 469 ft | 145 kts | 177° |
| 2026-05-07 23:17 | 32.67332 | 13.15858 | 304 ft | 137 kts | 177° |
| 2026-05-07 23:17 | 32.66479 | 13.15906 | 284 ft | 94 kts | 177° |
| 2026-05-07 23:17 | 32.66126 | 13.15930 | 288 ft | 14 kts | 178° |
| 2026-05-07 23:18 | 32.66037 | 13.15922 | 288 ft | 9 kts | 213° |
| 2026-05-07 23:18 | 32.66022 | 13.15870 | 295 ft | 9 kts | 268° |
| 2026-05-07 23:18 | 32.66060 | 13.15812 | 295 ft | 13 kts | 325° |
| 2026-05-07 23:18 | 32.66159 | 13.15752 | 300 ft | 21 kts | 337° |
| 2026-05-07 23:19 | 32.66288 | 13.15681 | 293 ft | 22 kts | 336° |
| 2026-05-07 23:19 | 32.66431 | 13.15602 | 293 ft | 23 kts | 334° |
| 2026-05-07 23:19 | 32.66549 | 13.15538 | 298 ft | 15 kts | 335° |
| 2026-05-07 23:19 | 32.66597 | 13.15438 | 300 ft | 20 kts | 268° |
| 2026-05-07 23:20 | 32.66590 | 13.15217 | 301 ft | 30 kts | 269° |
| 2026-05-07 23:20 | 32.66587 | 13.14974 | 300 ft | 24 kts | 269° |
| 2026-05-07 23:20 | 32.66586 | 13.14772 | 298 ft | 22 kts | 278° |
| 2026-05-07 23:20 | 32.66644 | 13.14631 | 298 ft | 16 kts | 303° |
| 2026-05-07 23:21 | 32.66732 | 13.14591 | 298 ft | 14 kts | 359° |
| 2026-05-07 23:21 | 32.66779 | 13.14560 | 302 ft | 6 kts | 283° |
| 2026-05-07 23:21 | 32.66782 | 13.14479 | 298 ft | 14 kts | 268° |
| 2026-05-07 23:21 | 32.66780 | 13.14343 | 302 ft | 19 kts | 269° |
| 2026-05-07 23:22 | 32.66777 | 13.14167 | 301 ft | 19 kts | 270° |
| 2026-05-07 23:22 | 32.66776 | 13.14054 | 298 ft | 13 kts | 269° |
| 2026-05-07 23:22 | 32.66789 | 13.13992 | 301 ft | 7 kts | 330° |
| 2026-05-07 23:22 | 32.66841 | 13.13984 | 299 ft | 6 kts | 359° |
| 2026-05-07 23:23 | 32.66846 | 13.13984 | 300 ft | 0 kts | 359° |